• Join FlightAware (Why Join?)
  • Login
  • US Flag 
12:48AM EDT


 

Airport Tracker/Info


-or-


 

Live Flight TrackerFlight Track Log ✈ SWA655 ✈ 10-Apr-2013 ✈ KSFO - KLAX

Flight Track Log - Related Links

Times and Time Zones

All times are in EDT time to prevent confusion due to time zone crossing. See the SWA655 flight status page for this flight to view local times or setup timezone preferences in your user account.

Time Position Orientation Groundspeed Altitude Reporting Facility
EDT Latitude Longitude Course Direction KTS MPH feet Rate Location/Type
05:19PM 37.6333 -122.3667 138° Southeast 162 186 1,300  Level Northern Cal TRACON
05:20PM 37.6833 -122.3833 345° North 221 254 3,700 1,800 Climbing Northern Cal TRACON
05:21PM 37.6667 -122.4333 247° West 287 330 5,000 1,500 Climbing Northern Cal TRACON
05:23PM 37.5742 -122.4008 164° South 297 342 7,200 2,760 Climbing Oakland Center
05:24PM 37.4075 -122.3064 156° South 337 388 13,700 3,240 Climbing Los Angeles Center
05:25PM 37.2577 -121.9618 138° Southeast  Level Estimated
05:25PM 37.3158 -122.2511 154° Southeast 351 404 16,600  Level Los Angeles Center
05:27PM 37.2344 -122.1625 139° Southeast 386 444 18,900 2,340 Climbing Los Angeles Center
05:28PM 37.1539 -122.0317 128° Southeast 401 461 21,900 2,280 Climbing Oakland Center
05:29PM 37.0758 -121.9239 132° Southeast 417 480 24,000 2,100 Climbing Oakland Center
05:30PM 36.9969 -121.8117 131° Southeast 429 494 26,200 1,980 Climbing Oakland Center
05:31PM 36.9150 -121.7031 133° Southeast 431 496 28,100 1,620 Climbing Oakland Center
05:32PM 36.8331 -121.5872 131° Southeast 443 510 29,600 1,440 Climbing Oakland Center
05:33PM 36.7456 -121.4653 132° Southeast 454 522 31,100 1,560 Climbing Oakland Center
05:34PM 36.6619 -121.3475 131° Southeast 454 522 32,900 1,260 Climbing Oakland Center
05:35PM 36.5761 -121.2292 132° Southeast 459 528 33,800 1,260 Climbing Oakland Center
05:36PM 36.4719 -121.0864 132° Southeast 464 534 35,500 1,320 Climbing Oakland Center
05:37PM 36.3867 -120.9686 132° Southeast 462 532 36,500 720 Climbing Oakland Center
05:38PM 36.2981 -120.8494 133° Southeast 467 537 37,000 240 Climbing Oakland Center
05:39PM 36.2092 -120.7308 133° Southeast 470 541 37,000  Level Oakland Center
05:40PM 36.1206 -120.6081 132° Southeast 475 547 37,000  Level Oakland Center
05:41PM 36.0306 -120.4900 133° Southeast 474 545 37,000  Level Oakland Center
05:42PM 35.9425 -120.3717 133° Southeast 469 540 37,000  Level Oakland Center
05:43PM 35.8550 -120.2539 132° Southeast 465 535 37,000  Level Oakland Center
05:44PM 35.7669 -120.1378 133° Southeast 461 531 37,000  Level Oakland Center
05:45PM 35.6769 -120.0194 133° Southeast 468 539 37,000  Level Oakland Center
05:46PM 35.5764 -119.9167 140° Southeast 473 544 37,000  Level Oakland Center
05:47PM 35.4697 -119.8258 145° Southeast 464 534 37,000  Level Oakland Center
05:48PM 35.3636 -119.7331 145° Southeast 465 535 37,000  Level Oakland Center
05:49PM 35.2581 -119.6436 145° Southeast 462 532 37,000 -600 Level Oakland Center
05:50PM 35.1306 -119.5336 145° Southeast 465 535 35,800 -1,380 Descending Oakland Center
05:51PM 35.0264 -119.4467 146° Southeast 455 524 34,200 -2,280 Descending Oakland Center
05:52PM 34.9272 -119.3594 144° Southeast 440 506 31,200 -3,000 Descending Oakland Center
05:53PM 34.8250 -119.2744 146° Southeast 442 509 28,100 -3,000 Descending Oakland Center
05:53PM 34.8044 -119.2572 145° Southeast 446 513 27,400 -3,060 Descending Los Angeles Center
05:54PM 34.7019 -119.1697 145° Southeast 449 517 24,200 -3,060 Descending Los Angeles Center
05:56PM 34.5978 -119.0831 146° Southeast 462 532 21,100 -3,180 Descending Los Angeles Center
05:57PM 34.4769 -118.9828 146° Southeast 442 509 17,700 -2,820 Descending Los Angeles Center
05:58PM 34.3811 -118.9019 145° Southeast 418 481 15,300 -1,800 Descending Los Angeles Center
05:59PM 34.2822 -118.8539 158° South 382 440 14,100 -1,500 Descending Los Angeles Center
06:00PM 34.1872 -118.8189 163° South 360 414 12,300 -1,800 Descending Los Angeles Center
06:01PM 34.0808 -118.7794 163° South 360 414 10,500 -1,140 Descending Los Angeles Center
06:02PM 34.0322 -118.6933 124° Southeast 293 337 10,000 -780 Descending Los Angeles Center
06:03PM 34.0236 -118.6000 96° East 278 320 8,900 -1,500 Descending Los Angeles Center
06:04PM 34.0147 -118.5022 96° East 272 313 7,000 -960 Descending Los Angeles Center
06:05PM 34.0164 -118.4186 89° East 265 305 7,000 -660 Level Los Angeles Center
06:06PM 34.0272 -118.3306 82° East 263 303 5,700 -1,020 Descending Los Angeles Center
06:07PM 34.0375 -118.2478 81° East 254 292 4,900 -780 Descending Los Angeles Center
06:08PM 34.0411 -118.1811 86° East 210 242 4,100 -840 Descending Los Angeles Center
06:09PM 34.0019 -118.1953 197° South 188 216 3,100 -780 Descending Los Angeles Center
06:10PM 33.9664 -118.2611 237° Southwest 174 200 2,400 -780 Descending Los Angeles Center
06:11PM 33.9617 -118.3097 263° West 156 180 1,600 -720 Descending Los Angeles Center
06:12PM 33.9578 -118.3506 263° West 139 160 1,000 -600 Descending Los Angeles Center
06:13PM 33.9544 -118.3897 264° West 126 145 400 -600 Descending Los Angeles Center
06:15PM 33.9333 -118.4000 250° West  Level FlightAware Approximate
06:22PM 33.9425 -118.4081 250° West  Level Estimated
06:23PM 33.9425 -118.4081 250° West  Level Estimated